Hovedside
METAR-TAF:

METAR-TAF

Lufthavner :

Joensuu lufthavn

Joensuu, Finland

breddegrad: 62-40N, lengdegrad: 029-38E, høyde over havet: 119 m

Gjeldene værobservasjon

Denne rapporten ble laget for 39 minutter siden, klokken 11:50 UTC
Vind 11 kt fra Vest-sørvest
Temperatur -1°C
Luftfuktighet 93%
Trykk 982 hPa
Sikt: 2100 m
Overskyet i en høyde av 900 ft
lett snø

METAR: EFJO 241150Z AUTO 25011KT 2100 -SN OVC009 M01/M02 Q0982

Tid: 14:29 (12:29 UTC)

Varsel

Denne rapporten ble laget for 58 minutter siden, klokken 11:31 UTC
Varsel gyldig fra 24. klokken 12 UTC til 24. klokken 21 UTC
Vind 11 kt fra Vest
Sikt 10 km eller mer
Brutte skyer i en høyde av 1500 ft
lett snø
Midlertidig
fra 24. klokken 12 UTC til 24. klokken 18 UTC
Vind 15 kt fra Vest med vindkast opp mot 25 kt
Sikt: 2500 m
Brutte skyer i en høyde av 900 ft

TAF: EFJO 241131Z 2412/2421 26011KT 9999 -SN BKN015 TEMPO 2412/2418 28015G25KT 2500 BKN009

Værobservasjoner og værvarsel for over 4000 flyplasser (METAR- og TAF-rapporter).

Tilgjengelige stasjoner er representert av de røde og gule prikkene på kartet.

Hold musepekeren over prikken for å se navnet på stasjonen.

Klikk så for å se værobservasjoner og -varsler.

For å forandre kartet kan du klikke på den grønne knappen med svart kryss for å zoome inn, på den grønne knappen med strek for å zoome ut, eller på de grønne pilene for å se tilstøtende kart.


METAR-TAF: